Hartland, Minnesota
Current Conditions -  °F | °C
As of 6:01 AM on Saturday 01 Nov 2014 (Local Time) from KAEL Reporting Station
Clear Clear  
Wind Chill: 18°   Ceiling: Unl
Heat Index: 25°   Visibility: 10mi
Dew Point: 18°   Wind: 6mph
Humidity: 74%   Direction: 180°S
Pressure: 30.44"   Gusts: NA
Location:  43.8°N, 93.49°W
Report Text: KAEL 011101Z AUTO 18005KT 10SM CLR M04/M08 A3044 RMK AO2
Loading
Personal Weather Stations






























Interactive Weather Map New forecast layout! Learn more

10-Day Weather Forecast

Advertisements
Track Severe Weather on mobile